Time;durP1;ratioP1;P1;durP2;ratioP2;P2;SDS_P1;SDS_P2;PMS_P1;PMS_P2;Temp;Humidity;BMP_temperature;BMP_pressure;BME280_temperature;BME280_humidity;BME280_pressure;Samples;Min_cycle;Max_cycle;Signal;HPM_P1;HPM_P2
2021/07/01 00:00:33;;;;;;;10.32;4.93;;;;;;;;;;5020611;28;20042;-57
2021/07/01 00:03:01;;;;;;;10.68;5.07;;;;;;;;;;5024236;28;20135;-57
2021/07/01 00:05:28;;;;;;;12.73;4.80;;;;;;;;;;5018718;28;20078;-57
2021/07/01 00:07:54;;;;;;;12.80;5.13;;;;;;;;;;5022030;28;20049;-55
2021/07/01 00:10:24;;;;;;;13.82;4.85;;;;;;;;;;5029321;28;20061;-57
2021/07/01 00:12:54;;;;;;;14.82;5.50;;;;;;;;;;5022715;28;20077;-57
2021/07/01 00:15:22;;;;;;;14.45;5.18;;;;;;;;;;5013456;28;20053;-57
2021/07/01 00:17:49;;;;;;;16.27;5.10;;;;;;;;;;5022331;28;20040;-57
2021/07/01 00:20:16;;;;;;;18.58;5.18;;;;;;;;;;5017931;28;20073;-57
2021/07/01 00:22:43;;;;;;;13.43;5.30;;;;;;;;;;5022213;28;20034;-57
2021/07/01 00:25:10;;;;;;;21.25;5.57;;;;;;;;;;5020322;28;20151;-57
2021/07/01 00:27:38;;;;;;;21.00;6.10;;;;;;;;;;5022306;28;20026;-57
2021/07/01 00:30:05;;;;;;;19.08;5.82;;;;;;;;;;5019458;28;20046;-57
2021/07/01 00:32:32;;;;;;;13.85;5.30;;;;;;;;;;5020839;28;20053;-58
2021/07/01 00:34:59;;;;;;;14.85;5.35;;;;;;;;;;5018404;28;20058;-57
2021/07/01 00:37:28;;;;;;;15.88;5.85;;;;;;;;;;5020805;28;20049;-56
2021/07/01 00:39:55;;;;;;;13.98;5.60;;;;;;;;;;5017591;28;20037;-57
2021/07/01 00:42:22;;;;;;;19.40;5.68;;;;;;;;;;5021122;28;20053;-56
2021/07/01 00:44:50;;;;;;;15.70;5.90;;;;;;;;;;5017233;28;20056;-58
2021/07/01 00:47:16;;;;;;;18.20;5.97;;;;;;;;;;5020945;28;20056;-57
2021/07/01 00:49:44;;;;;;;22.48;5.28;;;;;;;;;;5020372;28;20371;-57
2021/07/01 00:52:12;;;;;;;18.00;5.97;;;;;;;;;;5018315;28;20060;-57
2021/07/01 00:54:38;;;;;;;14.25;5.22;;;;;;;;;;5020127;28;20037;-57
2021/07/01 00:57:06;;;;;;;18.92;5.07;;;;;;;;;;5049206;28;20045;-56
2021/07/01 00:59:32;;;;;;;13.60;4.93;;;;;;;;;;5019409;28;20508;-56
2021/07/01 01:02:01;;;;;;;12.00;4.85;;;;;;;;;;5018333;28;20038;-58
2021/07/01 01:04:27;;;;;;;11.65;4.45;;;;;;;;;;5023617;28;20219;-57
2021/07/01 01:06:54;;;;;;;12.95;4.53;;;;;;;;;;5019845;28;20037;-57
2021/07/01 01:09:20;;;;;;;15.70;4.30;;;;;;;;;;5022621;28;20045;-57
2021/07/01 01:11:47;;;;;;;15.73;4.00;;;;;;;;;;5025707;28;20122;-57
2021/07/01 01:14:14;;;;;;;16.50;4.20;;;;;;;;;;5041188;28;20041;-56
2021/07/01 01:16:41;;;;;;;14.32;3.92;;;;;;;;;;5071399;28;20073;-60
2021/07/01 01:19:09;;;;;;;10.43;3.50;;;;;;;;;;5042877;28;20037;-60
2021/07/01 01:21:37;;;;;;;12.98;3.92;;;;;;;;;;5036436;28;20146;-60
2021/07/01 01:24:07;;;;;;;13.88;3.70;;;;;;;;;;5073724;28;20048;-58
2021/07/01 01:26:33;;;;;;;11.13;2.97;;;;;;;;;;5038757;28;20053;-59
2021/07/01 01:29:00;;;;;;;12.30;2.85;;;;;;;;;;5044348;28;20048;-58
2021/07/01 01:31:27;;;;;;;12.38;3.20;;;;;;;;;;5027299;28;20047;-59
2021/07/01 01:33:55;;;;;;;7.50;2.80;;;;;;;;;;5041551;28;20056;-59
2021/07/01 01:36:21;;;;;;;7.22;2.28;;;;;;;;;;5026329;28;20274;-59
2021/07/01 01:38:48;;;;;;;8.90;2.40;;;;;;;;;;5036105;28;20115;-60
2021/07/01 01:41:16;;;;;;;8.00;2.50;;;;;;;;;;5045122;28;20171;-60
2021/07/01 01:43:42;;;;;;;9.73;2.70;;;;;;;;;;5027573;28;20038;-60
2021/07/01 01:46:09;;;;;;;9.18;2.63;;;;;;;;;;5026299;28;20091;-59
2021/07/01 01:48:35;;;;;;;10.95;2.75;;;;;;;;;;5024018;28;20164;-60
2021/07/01 01:51:02;;;;;;;7.10;2.20;;;;;;;;;;5025460;28;20053;-59
2021/07/01 01:53:29;;;;;;;9.90;2.50;;;;;;;;;;5063045;28;20045;-60
2021/07/01 01:55:56;;;;;;;12.63;3.07;;;;;;;;;;5043557;28;20037;-56
2021/07/01 01:58:24;;;;;;;8.80;2.75;;;;;;;;;;5041215;28;20077;-59
2021/07/01 02:00:50;;;;;;;8.43;2.80;;;;;;;;;;5026114;28;20092;-60
2021/07/01 02:03:18;;;;;;;11.52;2.67;;;;;;;;;;5023074;28;20041;-58
2021/07/01 02:05:45;;;;;;;10.65;2.60;;;;;;;;;;5042661;28;20045;-59
2021/07/01 02:08:11;;;;;;;8.18;2.65;;;;;;;;;;5039146;28;20041;-57
2021/07/01 02:10:38;;;;;;;8.10;2.50;;;;;;;;;;5028218;28;20098;-57
2021/07/01 02:13:09;;;;;;;10.98;2.75;;;;;;;;;;5025310;28;20049;-56
2021/07/01 02:15:37;;;;;;;10.88;2.78;;;;;;;;;;5023020;28;20029;-57
2021/07/01 02:18:04;;;;;;;9.27;2.87;;;;;;;;;;5024143;28;20038;-57
2021/07/01 02:20:30;;;;;;;7.72;2.97;;;;;;;;;;5020601;28;20114;-57
2021/07/01 02:22:58;;;;;;;8.07;3.20;;;;;;;;;;5026672;28;20048;-57
2021/07/01 02:25:25;;;;;;;13.63;3.70;;;;;;;;;;5022098;28;20115;-57
2021/07/01 02:27:51;;;;;;;13.48;3.90;;;;;;;;;;5025962;28;20447;-56
2021/07/01 02:30:18;;;;;;;13.55;3.30;;;;;;;;;;5005480;28;20085;-57
2021/07/01 02:32:46;;;;;;;9.43;3.65;;;;;;;;;;5025902;28;20229;-57
2021/07/01 02:35:13;;;;;;;12.70;3.58;;;;;;;;;;5022904;28;20052;-58
2021/07/01 02:37:40;;;;;;;10.60;3.10;;;;;;;;;;5015285;28;20073;-57
2021/07/01 02:40:09;;;;;;;18.02;4.22;;;;;;;;;;5021653;28;20061;-57
2021/07/01 02:42:36;;;;;;;19.83;4.07;;;;;;;;;;5026717;28;20069;-57
2021/07/01 02:45:02;;;;;;;11.50;3.70;;;;;;;;;;5023038;28;20041;-57
2021/07/01 02:47:29;;;;;;;11.00;3.55;;;;;;;;;;5029079;28;20037;-57
2021/07/01 02:49:59;;;;;;;23.10;3.47;;;;;;;;;;5024808;28;20057;-59
2021/07/01 02:52:26;;;;;;;20.10;4.45;;;;;;;;;;5019979;28;20041;-58
2021/07/01 02:54:52;;;;;;;13.32;3.65;;;;;;;;;;5021701;28;20053;-57
2021/07/01 02:57:19;;;;;;;12.00;3.30;;;;;;;;;;5042326;28;20054;-58
2021/07/01 02:59:45;;;;;;;11.50;3.22;;;;;;;;;;5025584;28;20119;-57
2021/07/01 03:02:12;;;;;;;7.80;2.92;;;;;;;;;;5019396;28;20065;-57
2021/07/01 03:04:39;;;;;;;12.55;3.78;;;;;;;;;;5020759;28;20053;-57
2021/07/01 03:07:07;;;;;;;18.52;3.60;;;;;;;;;;5034572;28;20076;-56
2021/07/01 03:09:33;;;;;;;9.52;3.15;;;;;;;;;;5030598;28;20041;-57
2021/07/01 03:12:01;;;;;;;14.30;3.58;;;;;;;;;;5022372;28;20029;-57
2021/07/01 03:14:27;;;;;;;12.30;4.33;;;;;;;;;;5025176;28;20041;-57
2021/07/01 03:16:55;;;;;;;11.90;3.30;;;;;;;;;;5020396;28;20129;-57
2021/07/01 03:19:22;;;;;;;11.90;3.33;;;;;;;;;;5025532;28;20088;-57
2021/07/01 03:21:48;;;;;;;16.30;3.42;;;;;;;;;;5018496;28;20108;-57
2021/07/01 03:24:16;;;;;;;10.93;3.42;;;;;;;;;;5021585;28;20053;-57
2021/07/01 03:26:43;;;;;;;14.20;3.33;;;;;;;;;;5008491;28;20044;-57
2021/07/01 03:29:12;;;;;;;9.25;3.17;;;;;;;;;;5023568;28;20060;-57
2021/07/01 03:31:39;;;;;;;13.85;3.00;;;;;;;;;;5021578;28;20051;-57
2021/07/01 03:34:05;;;;;;;17.70;3.70;;;;;;;;;;5024500;28;20033;-57
2021/07/01 03:36:32;;;;;;;11.48;3.30;;;;;;;;;;5013150;28;20037;-57
2021/07/01 03:39:02;;;;;;;9.55;3.22;;;;;;;;;;5025511;28;20131;-57
2021/07/01 03:41:30;;;;;;;11.27;3.42;;;;;;;;;;5041675;28;20033;-57
2021/07/01 03:43:56;;;;;;;13.18;4.05;;;;;;;;;;5021900;28;20033;-57
2021/07/01 03:46:23;;;;;;;10.45;3.38;;;;;;;;;;5024941;28;20037;-57
2021/07/01 03:48:49;;;;;;;14.48;3.67;;;;;;;;;;5020853;28;20045;-57
2021/07/01 03:51:18;;;;;;;8.60;3.53;;;;;;;;;;5042200;28;20061;-55
2021/07/01 03:53:44;;;;;;;14.93;3.80;;;;;;;;;;5021242;28;20041;-56
2021/07/01 03:56:11;;;;;;;16.50;4.05;;;;;;;;;;5042165;28;20053;-57
2021/07/01 03:58:39;;;;;;;13.30;3.45;;;;;;;;;;5028602;28;20444;-57
2021/07/01 04:01:06;;;;;;;14.00;4.20;;;;;;;;;;5016943;28;20054;-57
2021/07/01 04:03:32;;;;;;;11.15;4.07;;;;;;;;;;5016823;28;20033;-57
2021/07/01 04:05:59;;;;;;;12.27;4.35;;;;;;;;;;5040788;28;20029;-57
2021/07/01 04:08:25;;;;;;;10.50;3.30;;;;;;;;;;5032357;28;20155;-57
2021/07/01 04:10:52;;;;;;;12.60;3.20;;;;;;;;;;5034978;28;20037;-57
2021/07/01 04:13:19;;;;;;;10.88;3.67;;;;;;;;;;5038807;28;20045;-57
2021/07/01 04:15:47;;;;;;;9.57;3.33;;;;;;;;;;5025071;28;20029;-57
2021/07/01 04:18:14;;;;;;;13.60;3.43;;;;;;;;;;5023664;28;20048;-57
2021/07/01 04:20:40;;;;;;;13.40;4.25;;;;;;;;;;5041774;28;20282;-57
2021/07/01 04:23:08;;;;;;;15.32;5.65;;;;;;;;;;5023248;28;20114;-56
2021/07/01 04:25:35;;;;;;;18.88;6.30;;;;;;;;;;5038623;28;20060;-57
2021/07/01 04:28:02;;;;;;;12.60;4.18;;;;;;;;;;5024713;28;20168;-57
2021/07/01 04:30:29;;;;;;;12.85;3.63;;;;;;;;;;5023879;28;20085;-57
2021/07/01 04:32:57;;;;;;;9.27;3.65;;;;;;;;;;5024266;28;20404;-57
2021/07/01 04:35:24;;;;;;;16.83;3.80;;;;;;;;;;5018658;28;20052;-57
2021/07/01 04:37:50;;;;;;;11.18;3.65;;;;;;;;;;5026280;28;20033;-57
2021/07/01 04:40:17;;;;;;;13.75;3.58;;;;;;;;;;5039368;28;20044;-57
2021/07/01 04:42:46;;;;;;;10.00;3.65;;;;;;;;;;5026024;28;20041;-57
2021/07/01 04:45:13;;;;;;;13.10;3.67;;;;;;;;;;5021814;28;20033;-57
2021/07/01 04:47:39;;;;;;;12.15;4.15;;;;;;;;;;5022690;28;20041;-57
2021/07/01 04:50:10;;;;;;;17.85;5.20;;;;;;;;;;5021305;28;20103;-57
2021/07/01 04:52:37;;;;;;;12.75;4.07;;;;;;;;;;5020539;28;20123;-58
2021/07/01 04:55:05;;;;;;;17.10;4.25;;;;;;;;;;5020199;28;20045;-57
2021/07/01 04:57:31;;;;;;;19.60;5.97;;;;;;;;;;5022831;28;20171;-57
2021/07/01 04:59:58;;;;;;;27.17;7.53;;;;;;;;;;5038598;28;20126;-57
2021/07/01 05:02:24;;;;;;;14.10;4.43;;;;;;;;;;5025276;28;20077;-57
2021/07/01 05:04:51;;;;;;;16.55;4.35;;;;;;;;;;5023823;28;20052;-57
2021/07/01 05:07:19;;;;;;;14.70;4.10;;;;;;;;;;5026126;28;20067;-57
2021/07/01 05:09:45;;;;;;;15.10;4.93;;;;;;;;;;5043077;28;20467;-57
2021/07/01 05:12:12;;;;;;;14.48;3.65;;;;;;;;;;5039577;28;20025;-57
2021/07/01 05:14:38;;;;;;;10.82;3.65;;;;;;;;;;5024587;28;20049;-57
2021/07/01 05:17:05;;;;;;;15.50;3.88;;;;;;;;;;5023849;28;20045;-57
2021/07/01 05:19:31;;;;;;;17.23;4.43;;;;;;;;;;5027204;28;21900;-56
2021/07/01 05:21:58;;;;;;;11.90;3.97;;;;;;;;;;5023839;28;20111;-57
2021/07/01 05:24:26;;;;;;;11.55;4.00;;;;;;;;;;5027903;28;20068;-57
2021/07/01 05:26:53;;;;;;;14.52;4.47;;;;;;;;;;5024388;28;20041;-56
2021/07/01 05:29:19;;;;;;;13.27;4.05;;;;;;;;;;5045422;28;20038;-57
2021/07/01 05:31:46;;;;;;;15.32;4.20;;;;;;;;;;5024803;28;20103;-56
2021/07/01 05:34:13;;;;;;;10.30;3.90;;;;;;;;;;5025031;28;20276;-57
2021/07/01 05:36:39;;;;;;;11.02;3.83;;;;;;;;;;5022101;28;20057;-57
2021/07/01 05:39:06;;;;;;;11.60;3.83;;;;;;;;;;5044289;28;20045;-57
2021/07/01 05:41:34;;;;;;;11.35;3.55;;;;;;;;;;5022882;28;20049;-56
2021/07/01 05:44:03;;;;;;;10.90;3.78;;;;;;;;;;5043498;28;20045;-56
2021/07/01 05:46:29;;;;;;;15.38;4.28;;;;;;;;;;5025229;28;20076;-56
2021/07/01 05:48:56;;;;;;;16.90;4.45;;;;;;;;;;5026935;28;20058;-55
2021/07/01 05:51:30;;;;;;;15.02;4.30;;;;;;;;;;5028696;28;20040;-55
2021/07/01 05:54:05;;;;;;;13.30;3.97;;;;;;;;;;5022828;28;20067;-57
2021/07/01 05:56:36;;;;;;;13.65;4.07;;;;;;;;;;5041879;28;20038;-55
2021/07/01 05:59:05;;;;;;;12.65;3.53;;;;;;;;;;5038331;28;20065;-55
2021/07/01 06:01:31;;;;;;;12.38;3.92;;;;;;;;;;5027043;28;20034;-57
2021/07/01 06:03:58;;;;;;;14.20;3.80;;;;;;;;;;5038623;28;20046;-57
2021/07/01 06:06:24;;;;;;;13.13;3.80;;;;;;;;;;5026497;28;20130;-57
2021/07/01 06:08:51;;;;;;;7.13;3.38;;;;;;;;;;5041315;28;20045;-57
2021/07/01 06:11:19;;;;;;;10.98;3.85;;;;;;;;;;5024577;28;20126;-57
2021/07/01 06:13:45;;;;;;;9.35;3.38;;;;;;;;;;5023445;28;20041;-57
2021/07/01 06:16:15;;;;;;;9.98;3.60;;;;;;;;;;5025490;28;20134;-56
2021/07/01 06:18:42;;;;;;;13.18;3.88;;;;;;;;;;5015027;28;20037;-57
2021/07/01 06:21:09;;;;;;;15.57;6.13;;;;;;;;;;5025296;28;20044;-57
2021/07/01 06:23:38;;;;;;;10.10;4.20;;;;;;;;;;5021799;28;20029;-57
2021/07/01 06:26:04;;;;;;;24.50;7.32;;;;;;;;;;5025800;28;20045;-56
2021/07/01 06:28:34;;;;;;;16.00;4.50;;;;;;;;;;5022538;28;20080;-55
2021/07/01 06:31:01;;;;;;;10.95;4.32;;;;;;;;;;5042437;28;20045;-57
2021/07/01 06:33:29;;;;;;;14.20;5.00;;;;;;;;;;5039639;28;20116;-57
2021/07/01 06:35:55;;;;;;;11.43;4.57;;;;;;;;;;5023838;28;20049;-56
2021/07/01 06:38:23;;;;;;;12.15;4.82;;;;;;;;;;5025377;28;20053;-57
2021/07/01 06:40:51;;;;;;;17.90;6.00;;;;;;;;;;5029302;28;20049;-57
2021/07/01 06:43:20;;;;;;;15.05;5.25;;;;;;;;;;5044958;28;20038;-57
2021/07/01 06:45:46;;;;;;;15.90;5.28;;;;;;;;;;5024405;28;20044;-57
2021/07/01 06:48:15;;;;;;;11.32;4.25;;;;;;;;;;5025509;28;20163;-56
2021/07/01 06:50:43;;;;;;;14.63;4.35;;;;;;;;;;5038891;28;20081;-57
2021/07/01 06:53:13;;;;;;;18.85;4.45;;;;;;;;;;5024537;28;20040;-57
2021/07/01 06:55:40;;;;;;;13.32;4.47;;;;;;;;;;5021844;28;20132;-57
2021/07/01 06:58:07;;;;;;;11.15;4.13;;;;;;;;;;5025743;28;20056;-57
2021/07/01 07:00:33;;;;;;;13.35;5.07;;;;;;;;;;5023296;28;20047;-57
2021/07/01 07:03:03;;;;;;;16.95;5.28;;;;;;;;;;5025414;28;20117;-57
2021/07/01 07:05:30;;;;;;;17.60;5.38;;;;;;;;;;5017168;28;20042;-57
2021/07/01 07:07:58;;;;;;;13.80;4.35;;;;;;;;;;5021944;28;20026;-56
2021/07/01 07:10:24;;;;;;;18.08;4.38;;;;;;;;;;5036065;28;20037;-54
2021/07/01 07:12:54;;;;;;;11.50;4.15;;;;;;;;;;5041385;28;20037;-56
2021/07/01 07:15:25;;;;;;;12.63;4.60;;;;;;;;;;5040008;28;20037;-57
2021/07/01 07:17:52;;;;;;;11.40;4.25;;;;;;;;;;5043865;28;20049;-56
2021/07/01 07:20:19;;;;;;;15.60;4.30;;;;;;;;;;5037438;28;20138;-57
2021/07/01 07:22:46;;;;;;;10.85;3.88;;;;;;;;;;5041629;28;20037;-56
2021/07/01 07:25:14;;;;;;;17.88;4.28;;;;;;;;;;5041124;28;20065;-56
2021/07/01 07:27:50;;;;;;;13.90;4.40;;;;;;;;;;5040676;28;20049;-56
2021/07/01 07:30:18;;;;;;;17.08;5.10;;;;;;;;;;5042386;28;20046;-57
2021/07/01 07:32:45;;;;;;;16.00;4.22;;;;;;;;;;5036089;28;20037;-57
2021/07/01 07:35:11;;;;;;;15.35;3.85;;;;;;;;;;5034183;28;20052;-56
2021/07/01 07:37:38;;;;;;;16.98;3.63;;;;;;;;;;5038084;28;20119;-56
2021/07/01 07:40:05;;;;;;;14.40;4.43;;;;;;;;;;5041277;28;20034;-57
2021/07/01 07:42:34;;;;;;;16.52;4.93;;;;;;;;;;5035090;28;20048;-55
2021/07/01 07:45:01;;;;;;;18.05;4.80;;;;;;;;;;5034612;28;20038;-55
2021/07/01 07:47:29;;;;;;;18.70;4.90;;;;;;;;;;5020145;28;20058;-55
2021/07/01 07:49:56;;;;;;;19.50;4.57;;;;;;;;;;5021209;28;20081;-57
2021/07/01 07:52:24;;;;;;;15.45;4.88;;;;;;;;;;5018007;28;20034;-57
2021/07/01 07:54:52;;;;;;;21.23;5.05;;;;;;;;;;5022916;28;20052;-56
2021/07/01 07:57:19;;;;;;;12.45;4.47;;;;;;;;;;5018466;28;20034;-57
2021/07/01 07:59:50;;;;;;;16.23;4.53;;;;;;;;;;5023944;28;20052;-57
2021/07/01 08:02:30;;;;;;;22.90;6.90;;;;;;;;;;5037377;28;20033;-56
2021/07/01 08:04:57;;;;;;;16.88;6.20;;;;;;;;;;5041045;28;20095;-55
2021/07/01 08:07:24;;;;;;;18.30;4.97;;;;;;;;;;5033682;28;20045;-59
2021/07/01 08:09:51;;;;;;;14.88;4.90;;;;;;;;;;5023279;28;20306;-60
2021/07/01 08:12:18;;;;;;;11.30;4.22;;;;;;;;;;5018897;28;20116;-59
2021/07/01 08:14:45;;;;;;;20.48;5.60;;;;;;;;;;5020010;28;20124;-59
2021/07/01 08:17:14;;;;;;;18.38;5.25;;;;;;;;;;5021698;28;20060;-58
2021/07/01 08:19:41;;;;;;;19.50;4.97;;;;;;;;;;5016934;28;20061;-60
2021/07/01 08:22:13;;;;;;;21.88;5.55;;;;;;;;;;5020891;28;20034;-58
2021/07/01 08:24:40;;;;;;;18.75;5.22;;;;;;;;;;5017140;28;20049;-59
2021/07/01 08:27:07;;;;;;;18.77;5.07;;;;;;;;;;5019833;28;20127;-57
2021/07/01 08:29:34;;;;;;;17.10;5.47;;;;;;;;;;5017730;28;20056;-56
2021/07/01 08:32:05;;;;;;;20.17;5.65;;;;;;;;;;5021059;28;20045;-57
2021/07/01 08:34:35;;;;;;;19.17;5.25;;;;;;;;;;5017442;28;20085;-55
2021/07/01 08:37:02;;;;;;;19.55;5.28;;;;;;;;;;5020570;28;20038;-57
2021/07/01 08:39:29;;;;;;;22.60;5.90;;;;;;;;;;5017638;28;20115;-57
2021/07/01 08:42:01;;;;;;;21.45;6.13;;;;;;;;;;5023341;28;20038;-55
2021/07/01 08:44:31;;;;;;;26.17;5.82;;;;;;;;;;5018921;28;20044;-57
2021/07/01 08:47:07;;;;;;;21.58;6.25;;;;;;;;;;5021542;28;20036;-56
2021/07/01 08:49:37;;;;;;;22.17;5.57;;;;;;;;;;5024306;28;20047;-57
2021/07/01 08:52:05;;;;;;;21.42;5.75;;;;;;;;;;5019762;28;20042;-57
2021/07/01 08:54:33;;;;;;;26.17;6.55;;;;;;;;;;5015569;28;20025;-58
2021/07/01 08:57:01;;;;;;;23.02;6.13;;;;;;;;;;5002271;28;20046;-56
2021/07/01 08:59:33;;;;;;;33.10;8.37;;;;;;;;;;5003586;28;21547;-58
2021/07/01 09:02:02;;;;;;;23.52;7.68;;;;;;;;;;5019156;28;20048;-58
2021/07/01 09:04:30;;;;;;;23.88;6.18;;;;;;;;;;5018042;28;20086;-56
2021/07/01 09:07:00;;;;;;;22.63;5.80;;;;;;;;;;5038856;28;20033;-57
2021/07/01 09:09:30;;;;;;;20.95;6.28;;;;;;;;;;5038507;28;20037;-57
2021/07/01 09:11:59;;;;;;;22.67;6.22;;;;;;;;;;5035752;28;20050;-57
2021/07/01 09:14:26;;;;;;;19.70;6.15;;;;;;;;;;5040771;28;20487;-57
2021/07/01 09:16:53;;;;;;;21.35;5.88;;;;;;;;;;5020986;28;20041;-56
2021/07/01 09:19:23;;;;;;;23.40;5.47;;;;;;;;;;5023605;28;20053;-57
2021/07/01 09:21:51;;;;;;;20.40;5.75;;;;;;;;;;5051642;28;20387;-57
2021/07/01 09:24:19;;;;;;;23.90;6.07;;;;;;;;;;5060303;28;20037;-56
2021/07/01 09:26:48;;;;;;;19.10;5.47;;;;;;;;;;5036309;28;20298;-57
2021/07/01 09:29:14;;;;;;;23.65;5.05;;;;;;;;;;5040438;28;20041;-58
2021/07/01 09:31:41;;;;;;;13.50;5.03;;;;;;;;;;5027966;28;20060;-57
2021/07/01 09:34:09;;;;;;;22.13;5.60;;;;;;;;;;5023202;28;20211;-57
2021/07/01 09:36:36;;;;;;;25.17;5.32;;;;;;;;;;5024460;28;20048;-57
2021/07/01 09:39:04;;;;;;;16.83;5.38;;;;;;;;;;5040955;28;20047;-55
2021/07/01 09:41:32;;;;;;;25.05;6.82;;;;;;;;;;5032069;28;20107;-57
2021/07/01 09:44:00;;;;;;;24.38;5.85;;;;;;;;;;5023628;28;20029;-57
2021/07/01 09:46:28;;;;;;;23.63;6.53;;;;;;;;;;5021835;28;20038;-57
2021/07/01 09:48:57;;;;;;;23.63;5.65;;;;;;;;;;5024797;28;20041;-57
2021/07/01 09:51:27;;;;;;;27.77;6.22;;;;;;;;;;5023971;28;20037;-57
2021/07/01 09:53:53;;;;;;;19.58;5.60;;;;;;;;;;5025655;28;20048;-57
2021/07/01 09:56:25;;;;;;;24.27;6.05;;;;;;;;;;5040293;28;20045;-57
2021/07/01 09:59:00;;;;;;;22.67;5.68;;;;;;;;;;5026173;28;20037;-57
2021/07/01 10:01:28;;;;;;;26.50;6.75;;;;;;;;;;5022721;28;20049;-57
2021/07/01 10:03:55;;;;;;;22.90;5.93;;;;;;;;;;5043204;28;20037;-57
2021/07/01 10:06:22;;;;;;;18.20;5.72;;;;;;;;;;5043708;28;20289;-57
2021/07/01 10:08:48;;;;;;;25.08;6.05;;;;;;;;;;5040256;28;20091;-57
2021/07/01 10:11:15;;;;;;;18.27;6.32;;;;;;;;;;5043416;28;20099;-57
2021/07/01 10:13:52;;;;;;;21.30;5.60;;;;;;;;;;5041721;28;20026;-57
2021/07/01 10:16:24;;;;;;;20.25;6.43;;;;;;;;;;5041572;28;20064;-57
2021/07/01 10:18:51;;;;;;;20.15;5.78;;;;;;;;;;5038563;28;20056;-57
2021/07/01 10:21:18;;;;;;;26.63;6.03;;;;;;;;;;5062290;28;20187;-57
2021/07/01 10:23:49;;;;;;;18.48;5.22;;;;;;;;;;5035941;28;20061;-57
2021/07/01 10:26:17;;;;;;;23.55;6.30;;;;;;;;;;5041377;28;20052;-57
2021/07/01 10:28:56;;;;;;;28.17;7.03;;;;;;;;;;5028809;28;20044;-57
2021/07/01 10:31:39;;;;;;;24.55;7.38;;;;;;;;;;5024354;28;20057;-58
2021/07/01 10:34:05;;;;;;;22.50;7.82;;;;;;;;;;5020638;28;20122;-56
2021/07/01 10:36:32;;;;;;;21.60;6.78;;;;;;;;;;5026006;28;20115;-58
2021/07/01 10:38:58;;;;;;;22.70;7.03;;;;;;;;;;5022870;28;20049;-56
2021/07/01 10:41:29;;;;;;;26.60;6.80;;;;;;;;;;5025952;28;20115;-57
2021/07/01 10:43:56;;;;;;;18.40;5.80;;;;;;;;;;5021834;28;20105;-57
2021/07/01 10:46:22;;;;;;;18.35;5.63;;;;;;;;;;5026201;28;20049;-57
2021/07/01 10:48:56;;;;;;;15.70;5.15;;;;;;;;;;5022543;28;20041;-57
2021/07/01 10:51:24;;;;;;;18.50;6.18;;;;;;;;;;5025358;28;20045;-57
2021/07/01 10:53:51;;;;;;;18.65;5.95;;;;;;;;;;5022236;28;20232;-57
2021/07/01 10:56:25;;;;;;;21.80;5.90;;;;;;;;;;5024735;28;20047;-57
2021/07/01 10:58:54;;;;;;;17.40;5.05;;;;;;;;;;5020338;28;20044;-57
2021/07/01 11:01:25;;;;;;;15.80;5.45;;;;;;;;;;5042395;28;20119;-57
2021/07/01 11:04:05;;;;;;;15.68;5.07;;;;;;;;;;5039701;28;20045;-58
2021/07/01 11:06:32;;;;;;;15.32;5.13;;;;;;;;;;5004623;28;20045;-58
2021/07/01 11:08:58;;;;;;;14.57;4.88;;;;;;;;;;5008151;28;20042;-57
2021/07/01 11:11:31;;;;;;;13.43;4.75;;;;;;;;;;5024106;28;20570;-57
2021/07/01 11:13:58;;;;;;;20.25;5.10;;;;;;;;;;5025755;28;20038;-58
2021/07/01 11:16:32;;;;;;;18.58;4.70;;;;;;;;;;5021570;28;20080;-57
2021/07/01 11:18:58;;;;;;;17.65;5.03;;;;;;;;;;5043427;28;20047;-57
2021/07/01 11:21:26;;;;;;;19.23;6.38;;;;;;;;;;5027936;28;20033;-57
2021/07/01 11:24:08;;;;;;;28.30;9.48;;;;;;;;;;5040436;28;20033;-57
2021/07/01 11:26:35;;;;;;;23.73;6.03;;;;;;;;;;5035995;28;20131;-57
2021/07/01 11:29:04;;;;;;;22.10;5.43;;;;;;;;;;5041978;28;20498;-57
2021/07/01 11:31:35;;;;;;;16.65;4.57;;;;;;;;;;5025653;28;20041;-56
2021/07/01 11:34:02;;;;;;;19.02;5.50;;;;;;;;;;5024522;28;20052;-57
2021/07/01 11:36:30;;;;;;;20.60;5.05;;;;;;;;;;5022354;28;20045;-57
2021/07/01 11:39:04;;;;;;;15.88;5.32;;;;;;;;;;5043413;28;20029;-57
2021/07/01 11:41:32;;;;;;;17.73;4.25;;;;;;;;;;5023824;28;20045;-58
2021/07/01 11:43:59;;;;;;;15.73;4.78;;;;;;;;;;5026141;28;20048;-57
2021/07/01 11:46:25;;;;;;;18.33;4.60;;;;;;;;;;5040299;28;20069;-56
2021/07/01 11:48:53;;;;;;;13.95;4.15;;;;;;;;;;5025254;28;20060;-58
2021/07/01 11:51:21;;;;;;;17.48;4.72;;;;;;;;;;5023944;28;20045;-57
2021/07/01 11:53:49;;;;;;;21.23;4.10;;;;;;;;;;5042026;28;20045;-57
2021/07/01 11:56:19;;;;;;;14.50;4.43;;;;;;;;;;5038171;28;20064;-57
2021/07/01 11:58:45;;;;;;;17.90;5.03;;;;;;;;;;5041267;28;20033;-57
2021/07/01 12:01:11;;;;;;;13.88;4.30;;;;;;;;;;5040176;28;20056;-57
2021/07/01 12:03:38;;;;;;;12.32;4.05;;;;;;;;;;5040314;28;20037;-58
2021/07/01 12:06:05;;;;;;;13.75;4.05;;;;;;;;;;5041736;28;20033;-57
2021/07/01 12:08:37;;;;;;;16.27;4.32;;;;;;;;;;5037419;28;20041;-57
2021/07/01 12:11:06;;;;;;;14.20;4.53;;;;;;;;;;5036110;28;20045;-57
2021/07/01 12:13:39;;;;;;;21.02;4.38;;;;;;;;;;5021404;28;20055;-58
2021/07/01 12:16:06;;;;;;;15.40;4.25;;;;;;;;;;5042337;28;20053;-57
2021/07/01 12:18:48;;;;;;;19.05;4.30;;;;;;;;;;5023063;28;20053;-58
2021/07/01 12:21:16;;;;;;;14.52;4.20;;;;;;;;;;5021173;28;20119;-58
2021/07/01 12:23:44;;;;;;;17.70;4.60;;;;;;;;;;5024830;28;20037;-57
2021/07/01 12:26:29;;;;;;;16.35;4.28;;;;;;;;;;5023120;28;20120;-58
2021/07/01 12:28:56;;;;;;;13.43;4.15;;;;;;;;;;5038052;28;20048;-57
2021/07/01 12:31:25;;;;;;;20.33;5.07;;;;;;;;;;5023565;28;20037;-58
2021/07/01 12:33:55;;;;;;;16.20;4.32;;;;;;;;;;5031766;28;20040;-57
2021/07/01 12:36:23;;;;;;;19.02;4.47;;;;;;;;;;5040811;28;20056;-57
2021/07/01 12:39:10;;;;;;;16.10;4.60;;;;;;;;;;5030452;28;20037;-58
2021/07/01 12:41:39;;;;;;;10.65;3.72;;;;;;;;;;5022040;28;20041;-57
2021/07/01 12:44:06;;;;;;;17.80;4.25;;;;;;;;;;5020203;28;20041;-57
2021/07/01 12:46:54;;;;;;;20.50;4.30;;;;;;;;;;5023563;28;20049;-57
2021/07/01 12:49:40;;;;;;;21.38;5.82;;;;;;;;;;5038712;28;20045;-57
2021/07/01 12:52:08;;;;;;;31.75;6.63;;;;;;;;;;5025182;28;20041;-57
2021/07/01 12:54:51;;;;;;;18.33;4.68;;;;;;;;;;5017274;28;20060;-58
2021/07/01 12:57:19;;;;;;;17.08;4.47;;;;;;;;;;5004709;28;20042;-57
2021/07/01 12:59:46;;;;;;;17.15;4.85;;;;;;;;;;5013912;28;20053;-57
2021/07/01 13:02:17;;;;;;;18.27;4.40;;;;;;;;;;5024367;28;20111;-58
2021/07/01 13:04:44;;;;;;;15.52;4.40;;;;;;;;;;5020851;28;20083;-58
2021/07/01 13:07:12;;;;;;;17.50;4.63;;;;;;;;;;5025771;28;20053;-58
2021/07/01 13:09:39;;;;;;;16.35;4.47;;;;;;;;;;5018939;28;20033;-58
2021/07/01 13:12:07;;;;;;;19.38;4.07;;;;;;;;;;5021186;28;20118;-58
2021/07/01 13:14:36;;;;;;;23.58;5.20;;;;;;;;;;5021948;28;20033;-57
2021/07/01 13:17:02;;;;;;;;;;;;;;;;;;5042215;28;20118;-58
2021/07/01 13:19:29;;;;;;;21.30;4.90;;;;;;;;;;5019449;28;19939;-58
2021/07/01 13:21:56;;;;;;;15.95;5.00;;;;;;;;;;5043993;28;20114;-58
2021/07/01 13:24:23;;;;;;;19.48;4.13;;;;;;;;;;5039491;28;20041;-58
2021/07/01 13:26:52;;;;;;;22.02;4.85;;;;;;;;;;5043426;28;20033;-58
2021/07/01 13:32:15;;;;;;;17.75;4.70;;;;;;;;;;5099613;27;20113;-57
2021/07/01 13:34:42;;;;;;;20.85;4.50;;;;;;;;;;5071830;28;20113;-57
2021/07/01 13:37:26;;;;;;;19.30;4.45;;;;;;;;;;5078352;28;20036;-57
2021/07/01 13:39:53;;;;;;;18.33;4.93;;;;;;;;;;5075860;28;20040;-58
2021/07/01 13:42:24;;;;;;;19.20;4.90;;;;;;;;;;5095346;28;20129;-57
2021/07/01 13:45:00;;;;;;;33.40;6.65;;;;;;;;;;5080597;28;20047;-58
2021/07/01 13:47:28;;;;;;;21.10;5.00;;;;;;;;;;5057567;28;20086;-58
2021/07/01 13:49:55;;;;;;;25.17;5.57;;;;;;;;;;5059416;28;20037;-57
2021/07/01 13:52:24;;;;;;;22.35;5.13;;;;;;;;;;5073704;28;20126;-58
2021/07/01 13:54:51;;;;;;;25.40;5.30;;;;;;;;;;5080513;28;20093;-59
2021/07/01 13:57:27;;;;;;;23.95;5.22;;;;;;;;;;5077975;28;20055;-59
2021/07/01 13:59:54;;;;;;;25.08;5.00;;;;;;;;;;5080327;28;20032;-60
2021/07/01 14:02:22;;;;;;;23.13;4.72;;;;;;;;;;5076658;28;20043;-59
2021/07/01 14:04:50;;;;;;;19.77;5.35;;;;;;;;;;5079372;28;20039;-60
2021/07/01 14:07:27;;;;;;;22.85;5.05;;;;;;;;;;5076878;28;20047;-60
2021/07/01 14:10:05;;;;;;;20.92;5.18;;;;;;;;;;5097460;28;20050;-59
2021/07/01 14:12:34;;;;;;;24.20;4.70;;;;;;;;;;5069319;28;20119;-60
2021/07/01 14:15:01;;;;;;;26.23;5.82;;;;;;;;;;5079083;28;20288;-59
2021/07/01 14:17:28;;;;;;;22.45;5.63;;;;;;;;;;5077305;28;20040;-60
2021/07/01 14:19:56;;;;;;;24.27;4.75;;;;;;;;;;5079660;28;20044;-59
2021/07/01 14:22:31;;;;;;;28.67;5.38;;;;;;;;;;5076356;28;20044;-59
2021/07/01 14:24:57;;;;;;;29.80;4.85;;;;;;;;;;5078916;28;20044;-60
2021/07/01 14:27:31;;;;;;;24.42;4.88;;;;;;;;;;5076447;28;20049;-59
2021/07/01 14:29:58;;;;;;;33.67;5.57;;;;;;;;;;5058196;28;20121;-59
2021/07/01 14:32:32;;;;;;;16.95;5.13;;;;;;;;;;5058275;28;20051;-60
2021/07/01 14:35:00;;;;;;;19.75;4.70;;;;;;;;;;5079835;28;20055;-59
2021/07/01 14:37:27;;;;;;;29.30;5.68;;;;;;;;;;5073345;28;20118;-60
2021/07/01 14:39:59;;;;;;;28.45;5.25;;;;;;;;;;5059649;28;20064;-58